This is the latest recevied weather packets stored in our database for station/object K9TLD. If no packets are shown the sender has not sent any weather packets the latest 1 day(s).
| Time | Temp. | Humidity | Pressure | Rain* | Wind** | Luminosity | Snow |
|---|---|---|---|---|---|---|---|
| 1778074645 | 7.78° C | 74% | 1015.2 hPa | 0 mm | - | 357 W/m² | - |
| 1778073129 | 7.78° C | 74% | 1015.2 hPa | 0 mm | - | 103 W/m² | - |
| 1778072826 | 7.22° C | 76% | 1014.8 hPa | 0 mm | - | 224 W/m² | - |
| 1778072221 | 7.78° C | 73% | 1014.6 hPa | 0 mm | - | 166 W/m² | - |
| 1778071919 | 7.78° C | 73% | 1014.7 hPa | 0 mm | - | 90 W/m² | - |
| 1778069196 | 5° C | 85% | 1014.1 hPa | 0 mm | - | 105 W/m² | - |
| 1778068290 | 4.44° C | 85% | 1014.1 hPa | 0 mm | - | 51 W/m² | - |
| 1778067986 | 4.44° C | 86% | 1014.1 hPa | 0 mm | - | 59 W/m² | - |
| 1778064959 | 1.67° C | 93% | 1013.8 hPa | 0 mm | - | 7 W/m² | - |
| 1778064656 | 1.67° C | 93% | 1013.7 hPa | 0 mm | - | 5 W/m² | - |
| 1778063445 | 1.67° C | 94% | 1013.5 hPa | 0 mm | - | 1 W/m² | - |
| 1778062841 | 1.67° C | 93% | 1013.4 hPa | 0 mm | - | 0 W/m² | - |
| 1778062537 | 1.67° C | 93% | 1013.2 hPa | 0 mm | - | 0 W/m² | - |
| 1778061329 | 2.22° C | 93% | 1013.3 hPa | 0 mm | - | 0 W/m² | - |
| 1778057999 | 2.78° C | 92% | 1013.2 hPa | 0 mm | - | 0 W/m² | - |
| 1778057696 | 2.78° C | 91% | 1013.1 hPa | 0 mm | - | 0 W/m² | - |
| 1778057089 | 2.78° C | 91% | 1013.1 hPa | 0 mm | - | 0 W/m² | - |
| 1778056483 | 2.78° C | 90% | 1013.1 hPa | 0 mm | - | 0 W/m² | - |
| 1778056180 | 2.78° C | 90% | 1012.9 hPa | 0 mm | - | 0 W/m² | - |
| 1778055877 | 2.78° C | 90% | 1012.8 hPa | 0 mm | - | 0 W/m² | - |
| 1778055572 | 3.33° C | 89% | 1012.9 hPa | 0 mm | - | 0 W/m² | - |
| 1778054968 | 3.33° C | 89% | 1012.8 hPa | 0 mm | - | 0 W/m² | - |
| 1778054665 | 3.33° C | 89% | 1012.8 hPa | 0 mm | - | 0 W/m² | - |
| 1778054060 | 3.33° C | 87% | 1012.8 hPa | 0 mm | - | 0 W/m² | - |
| 1778053454 | 3.89° C | 85% | 1013 hPa | 0 mm | - | 0 W/m² | - |
* Rain latest hour (hover to see other rain measurements)
** Current wind speed in m/s (hover to see current wind gust speed)